sensor_id;sensor_type;location;lat;lon;timestamp;P1;durP1;ratioP1;P2;durP2;ratioP2
62941;SDS011;49042;47.318;19.874;2023-03-14T00:01:38;6.35;;;4.00;;
62941;SDS011;49042;47.318;19.874;2023-03-14T00:04:40;6.18;;;3.78;;
62941;SDS011;49042;47.318;19.874;2023-03-14T00:07:42;5.97;;;4.00;;
62941;SDS011;49042;47.318;19.874;2023-03-14T00:10:43;7.18;;;4.43;;
62941;SDS011;49042;47.318;19.874;2023-03-14T00:13:48;6.22;;;3.80;;
62941;SDS011;49042;47.318;19.874;2023-03-14T00:16:51;7.35;;;4.10;;
62941;SDS011;49042;47.318;19.874;2023-03-14T00:19:53;9.45;;;4.22;;
62941;SDS011;49042;47.318;19.874;2023-03-14T00:22:55;6.10;;;3.90;;
62941;SDS011;49042;47.318;19.874;2023-03-14T00:26:00;7.18;;;3.95;;
62941;SDS011;49042;47.318;19.874;2023-03-14T00:29:06;11.07;;;5.15;;
62941;SDS011;49042;47.318;19.874;2023-03-14T00:32:08;6.55;;;4.12;;
62941;SDS011;49042;47.318;19.874;2023-03-14T00:35:10;9.30;;;4.72;;
62941;SDS011;49042;47.318;19.874;2023-03-14T00:38:12;9.77;;;4.78;;
62941;SDS011;49042;47.318;19.874;2023-03-14T00:41:14;8.90;;;4.68;;
62941;SDS011;49042;47.318;19.874;2023-03-14T00:44:17;9.38;;;4.78;;
62941;SDS011;49042;47.318;19.874;2023-03-14T00:47:19;9.05;;;4.72;;
62941;SDS011;49042;47.318;19.874;2023-03-14T00:50:20;8.98;;;4.43;;
62941;SDS011;49042;47.318;19.874;2023-03-14T00:53:22;9.07;;;4.82;;
62941;SDS011;49042;47.318;19.874;2023-03-14T00:56:24;7.05;;;4.50;;
62941;SDS011;49042;47.318;19.874;2023-03-14T00:59:26;12.98;;;4.15;;
62941;SDS011;49042;47.318;19.874;2023-03-14T01:02:28;9.43;;;4.40;;
62941;SDS011;49042;47.318;19.874;2023-03-14T01:05:30;15.65;;;4.70;;
62941;SDS011;49042;47.318;19.874;2023-03-14T01:08:31;6.35;;;4.30;;
62941;SDS011;49042;47.318;19.874;2023-03-14T01:11:33;10.20;;;5.15;;
62941;SDS011;49042;47.318;19.874;2023-03-14T01:14:36;9.65;;;4.90;;
62941;SDS011;49042;47.318;19.874;2023-03-14T01:17:38;9.52;;;4.65;;
62941;SDS011;49042;47.318;19.874;2023-03-14T01:20:40;9.48;;;4.97;;
62941;SDS011;49042;47.318;19.874;2023-03-14T01:23:42;9.50;;;5.10;;
62941;SDS011;49042;47.318;19.874;2023-03-14T01:26:44;7.47;;;4.87;;
62941;SDS011;49042;47.318;19.874;2023-03-14T01:29:46;9.05;;;4.93;;
62941;SDS011;49042;47.318;19.874;2023-03-14T01:32:48;15.55;;;5.28;;
62941;SDS011;49042;47.318;19.874;2023-03-14T01:35:50;9.05;;;4.70;;
62941;SDS011;49042;47.318;19.874;2023-03-14T01:38:52;9.35;;;4.75;;
62941;SDS011;49042;47.318;19.874;2023-03-14T01:41:53;12.37;;;5.20;;
62941;SDS011;49042;47.318;19.874;2023-03-14T01:44:59;7.62;;;4.70;;
62941;SDS011;49042;47.318;19.874;2023-03-14T01:48:02;9.77;;;4.97;;
62941;SDS011;49042;47.318;19.874;2023-03-14T01:51:04;8.68;;;4.82;;
62941;SDS011;49042;47.318;19.874;2023-03-14T01:54:20;8.98;;;4.85;;
62941;SDS011;49042;47.318;19.874;2023-03-14T01:57:25;10.07;;;4.90;;
62941;SDS011;49042;47.318;19.874;2023-03-14T02:00:31;11.63;;;4.82;;
62941;SDS011;49042;47.318;19.874;2023-03-14T02:03:34;11.57;;;5.53;;
62941;SDS011;49042;47.318;19.874;2023-03-14T02:06:49;10.82;;;5.93;;
62941;SDS011;49042;47.318;19.874;2023-03-14T02:09:58;9.57;;;5.22;;
62941;SDS011;49042;47.318;19.874;2023-03-14T02:13:02;8.25;;;4.93;;
62941;SDS011;49042;47.318;19.874;2023-03-14T02:16:05;9.20;;;5.15;;
62941;SDS011;49042;47.318;19.874;2023-03-14T02:19:07;12.18;;;5.50;;
62941;SDS011;49042;47.318;19.874;2023-03-14T02:22:12;8.40;;;5.00;;
62941;SDS011;49042;47.318;19.874;2023-03-14T02:25:31;10.48;;;5.10;;
62941;SDS011;49042;47.318;19.874;2023-03-14T02:28:35;9.45;;;5.00;;
62941;SDS011;49042;47.318;19.874;2023-03-14T02:31:37;13.10;;;5.25;;
62941;SDS011;49042;47.318;19.874;2023-03-14T02:34:39;11.50;;;6.05;;
62941;SDS011;49042;47.318;19.874;2023-03-14T02:41:36;8.85;;;6.05;;
62941;SDS011;49042;47.318;19.874;2023-03-14T02:44:48;12.90;;;5.50;;
62941;SDS011;49042;47.318;19.874;2023-03-14T02:47:57;13.40;;;5.12;;
62941;SDS011;49042;47.318;19.874;2023-03-14T02:51:03;8.70;;;4.95;;
62941;SDS011;49042;47.318;19.874;2023-03-14T02:54:05;9.85;;;5.00;;
62941;SDS011;49042;47.318;19.874;2023-03-14T02:57:07;8.50;;;4.80;;
62941;SDS011;49042;47.318;19.874;2023-03-14T03:00:09;7.43;;;4.55;;
62941;SDS011;49042;47.318;19.874;2023-03-14T03:03:11;9.40;;;4.78;;
62941;SDS011;49042;47.318;19.874;2023-03-14T03:06:13;10.68;;;5.28;;
62941;SDS011;49042;47.318;19.874;2023-03-14T03:09:16;10.65;;;5.50;;
62941;SDS011;49042;47.318;19.874;2023-03-14T03:12:17;12.57;;;5.10;;
62941;SDS011;49042;47.318;19.874;2023-03-14T03:15:19;15.52;;;5.55;;
62941;SDS011;49042;47.318;19.874;2023-03-14T03:18:21;11.27;;;4.60;;
62941;SDS011;49042;47.318;19.874;2023-03-14T03:21:22;8.35;;;5.40;;
62941;SDS011;49042;47.318;19.874;2023-03-14T03:24:25;7.50;;;4.75;;
62941;SDS011;49042;47.318;19.874;2023-03-14T03:27:29;8.48;;;4.55;;
62941;SDS011;49042;47.318;19.874;2023-03-14T03:30:42;11.88;;;4.82;;
62941;SDS011;49042;47.318;19.874;2023-03-14T03:33:44;9.55;;;5.68;;
62941;SDS011;49042;47.318;19.874;2023-03-14T03:36:46;9.70;;;5.25;;
62941;SDS011;49042;47.318;19.874;2023-03-14T03:39:49;9.23;;;5.18;;
62941;SDS011;49042;47.318;19.874;2023-03-14T03:42:52;10.07;;;5.50;;
62941;SDS011;49042;47.318;19.874;2023-03-14T03:45:53;10.13;;;5.25;;
62941;SDS011;49042;47.318;19.874;2023-03-14T03:48:56;11.60;;;5.25;;
62941;SDS011;49042;47.318;19.874;2023-03-14T03:51:59;8.98;;;5.75;;
62941;SDS011;49042;47.318;19.874;2023-03-14T03:55:01;9.27;;;5.05;;
62941;SDS011;49042;47.318;19.874;2023-03-14T03:58:03;11.18;;;5.62;;
62941;SDS011;49042;47.318;19.874;2023-03-14T04:01:05;11.40;;;5.82;;
62941;SDS011;49042;47.318;19.874;2023-03-14T04:04:08;8.75;;;5.25;;
62941;SDS011;49042;47.318;19.874;2023-03-14T04:07:10;10.43;;;6.03;;
62941;SDS011;49042;47.318;19.874;2023-03-14T04:10:13;28.23;;;11.12;;
62941;SDS011;49042;47.318;19.874;2023-03-14T04:13:15;12.07;;;6.12;;
62941;SDS011;49042;47.318;19.874;2023-03-14T04:16:17;11.55;;;5.40;;
62941;SDS011;49042;47.318;19.874;2023-03-14T04:19:21;12.55;;;5.60;;
62941;SDS011;49042;47.318;19.874;2023-03-14T04:22:23;7.68;;;5.18;;
62941;SDS011;49042;47.318;19.874;2023-03-14T04:25:25;8.90;;;5.65;;
62941;SDS011;49042;47.318;19.874;2023-03-14T04:28:26;18.65;;;6.22;;
62941;SDS011;49042;47.318;19.874;2023-03-14T04:31:28;12.77;;;5.65;;
62941;SDS011;49042;47.318;19.874;2023-03-14T04:34:30;10.52;;;5.75;;
62941;SDS011;49042;47.318;19.874;2023-03-14T04:37:32;12.68;;;5.30;;
62941;SDS011;49042;47.318;19.874;2023-03-14T04:40:33;19.40;;;6.05;;
62941;SDS011;49042;47.318;19.874;2023-03-14T04:43:38;16.92;;;5.95;;
62941;SDS011;49042;47.318;19.874;2023-03-14T04:46:40;12.65;;;6.60;;
62941;SDS011;49042;47.318;19.874;2023-03-14T04:49:41;15.32;;;6.72;;
62941;SDS011;49042;47.318;19.874;2023-03-14T04:52:43;20.35;;;7.93;;
62941;SDS011;49042;47.318;19.874;2023-03-14T04:55:52;22.58;;;9.02;;
62941;SDS011;49042;47.318;19.874;2023-03-14T04:58:54;16.00;;;8.85;;
62941;SDS011;49042;47.318;19.874;2023-03-14T05:01:56;14.05;;;7.62;;
62941;SDS011;49042;47.318;19.874;2023-03-14T05:04:58;12.85;;;6.80;;
62941;SDS011;49042;47.318;19.874;2023-03-14T05:07:59;13.50;;;7.80;;
62941;SDS011;49042;47.318;19.874;2023-03-14T05:11:01;14.13;;;7.55;;
62941;SDS011;49042;47.318;19.874;2023-03-14T05:14:04;15.13;;;8.93;;
62941;SDS011;49042;47.318;19.874;2023-03-14T05:17:05;18.60;;;9.05;;
62941;SDS011;49042;47.318;19.874;2023-03-14T05:20:07;16.77;;;7.90;;
62941;SDS011;49042;47.318;19.874;2023-03-14T05:23:10;10.95;;;7.32;;
62941;SDS011;49042;47.318;19.874;2023-03-14T05:26:12;11.12;;;6.28;;
62941;SDS011;49042;47.318;19.874;2023-03-14T05:29:14;9.43;;;5.37;;
62941;SDS011;49042;47.318;19.874;2023-03-14T05:32:16;13.40;;;7.28;;
62941;SDS011;49042;47.318;19.874;2023-03-14T05:35:17;8.60;;;4.53;;
62941;SDS011;49042;47.318;19.874;2023-03-14T05:38:19;7.35;;;4.95;;
62941;SDS011;49042;47.318;19.874;2023-03-14T05:41:21;6.68;;;4.43;;
62941;SDS011;49042;47.318;19.874;2023-03-14T05:44:22;10.00;;;4.87;;
62941;SDS011;49042;47.318;19.874;2023-03-14T05:47:24;10.63;;;4.72;;
62941;SDS011;49042;47.318;19.874;2023-03-14T05:50:26;10.95;;;5.65;;
62941;SDS011;49042;47.318;19.874;2023-03-14T05:53:28;11.82;;;5.68;;
62941;SDS011;49042;47.318;19.874;2023-03-14T05:56:30;9.85;;;4.55;;
62941;SDS011;49042;47.318;19.874;2023-03-14T05:59:32;12.00;;;4.68;;
62941;SDS011;49042;47.318;19.874;2023-03-14T06:02:33;7.60;;;4.62;;
62941;SDS011;49042;47.318;19.874;2023-03-14T06:05:35;14.93;;;4.47;;
62941;SDS011;49042;47.318;19.874;2023-03-14T06:08:37;7.85;;;4.75;;
62941;SDS011;49042;47.318;19.874;2023-03-14T06:11:38;9.82;;;5.57;;
62941;SDS011;49042;47.318;19.874;2023-03-14T06:14:40;9.40;;;4.57;;
62941;SDS011;49042;47.318;19.874;2023-03-14T06:17:42;7.90;;;4.22;;
62941;SDS011;49042;47.318;19.874;2023-03-14T06:20:43;8.77;;;4.60;;
62941;SDS011;49042;47.318;19.874;2023-03-14T06:23:45;11.60;;;4.47;;
62941;SDS011;49042;47.318;19.874;2023-03-14T06:26:47;10.00;;;4.55;;
62941;SDS011;49042;47.318;19.874;2023-03-14T06:29:48;7.45;;;4.70;;
62941;SDS011;49042;47.318;19.874;2023-03-14T06:32:50;8.98;;;4.37;;
62941;SDS011;49042;47.318;19.874;2023-03-14T06:35:52;7.05;;;4.22;;
62941;SDS011;49042;47.318;19.874;2023-03-14T06:38:54;11.10;;;5.70;;
62941;SDS011;49042;47.318;19.874;2023-03-14T06:41:55;8.13;;;4.53;;
62941;SDS011;49042;47.318;19.874;2023-03-14T06:44:57;10.93;;;4.70;;
62941;SDS011;49042;47.318;19.874;2023-03-14T06:47:59;9.75;;;4.53;;
62941;SDS011;49042;47.318;19.874;2023-03-14T06:51:00;11.82;;;4.22;;
62941;SDS011;49042;47.318;19.874;2023-03-14T06:54:02;8.07;;;4.10;;
62941;SDS011;49042;47.318;19.874;2023-03-14T06:57:04;14.52;;;8.35;;
62941;SDS011;49042;47.318;19.874;2023-03-14T07:00:06;16.45;;;4.15;;
62941;SDS011;49042;47.318;19.874;2023-03-14T07:03:08;7.50;;;4.50;;
62941;SDS011;49042;47.318;19.874;2023-03-14T07:06:13;9.55;;;4.97;;
62941;SDS011;49042;47.318;19.874;2023-03-14T07:09:15;7.15;;;4.10;;
62941;SDS011;49042;47.318;19.874;2023-03-14T07:12:18;7.87;;;3.70;;
62941;SDS011;49042;47.318;19.874;2023-03-14T07:15:20;7.40;;;4.18;;
62941;SDS011;49042;47.318;19.874;2023-03-14T07:18:22;12.02;;;4.32;;
62941;SDS011;49042;47.318;19.874;2023-03-14T07:21:24;8.73;;;4.22;;
62941;SDS011;49042;47.318;19.874;2023-03-14T07:24:25;12.45;;;4.05;;
62941;SDS011;49042;47.318;19.874;2023-03-14T07:27:27;13.80;;;3.90;;
62941;SDS011;49042;47.318;19.874;2023-03-14T07:30:29;6.95;;;3.85;;
62941;SDS011;49042;47.318;19.874;2023-03-14T07:33:30;10.77;;;4.10;;
62941;SDS011;49042;47.318;19.874;2023-03-14T07:36:32;20.90;;;4.60;;
62941;SDS011;49042;47.318;19.874;2023-03-14T07:39:34;16.50;;;4.45;;
62941;SDS011;49042;47.318;19.874;2023-03-14T07:42:36;6.03;;;3.85;;
62941;SDS011;49042;47.318;19.874;2023-03-14T07:45:38;14.27;;;3.95;;
62941;SDS011;49042;47.318;19.874;2023-03-14T07:48:43;26.58;;;4.72;;
62941;SDS011;49042;47.318;19.874;2023-03-14T07:51:48;25.55;;;4.72;;
62941;SDS011;49042;47.318;19.874;2023-03-14T07:54:50;29.87;;;5.30;;
62941;SDS011;49042;47.318;19.874;2023-03-14T07:57:52;6.65;;;4.07;;
62941;SDS011;49042;47.318;19.874;2023-03-14T08:00:53;11.73;;;4.75;;
62941;SDS011;49042;47.318;19.874;2023-03-14T08:03:55;29.63;;;4.93;;
62941;SDS011;49042;47.318;19.874;2023-03-14T08:06:57;30.65;;;4.85;;
62941;SDS011;49042;47.318;19.874;2023-03-14T08:09:59;40.72;;;6.65;;
62941;SDS011;49042;47.318;19.874;2023-03-14T08:13:00;64.32;;;10.55;;
62941;SDS011;49042;47.318;19.874;2023-03-14T08:16:02;32.70;;;8.55;;
62941;SDS011;49042;47.318;19.874;2023-03-14T08:19:05;23.02;;;6.50;;
62941;SDS011;49042;47.318;19.874;2023-03-14T08:22:07;12.23;;;5.10;;
62941;SDS011;49042;47.318;19.874;2023-03-14T08:25:08;28.58;;;5.10;;
62941;SDS011;49042;47.318;19.874;2023-03-14T08:28:10;63.75;;;9.75;;
62941;SDS011;49042;47.318;19.874;2023-03-14T08:31:12;34.95;;;5.90;;
62941;SDS011;49042;47.318;19.874;2023-03-14T08:34:14;56.65;;;7.30;;
62941;SDS011;49042;47.318;19.874;2023-03-14T08:37:16;38.45;;;5.70;;
62941;SDS011;49042;47.318;19.874;2023-03-14T08:40:27;39.33;;;6.22;;
62941;SDS011;49042;47.318;19.874;2023-03-14T08:43:28;54.15;;;6.93;;
62941;SDS011;49042;47.318;19.874;2023-03-14T08:46:30;8.73;;;4.07;;
62941;SDS011;49042;47.318;19.874;2023-03-14T08:49:32;42.67;;;5.53;;
62941;SDS011;49042;47.318;19.874;2023-03-14T08:52:34;14.55;;;4.65;;
62941;SDS011;49042;47.318;19.874;2023-03-14T08:55:36;32.08;;;5.37;;
62941;SDS011;49042;47.318;19.874;2023-03-14T08:58:37;54.97;;;6.62;;
62941;SDS011;49042;47.318;19.874;2023-03-14T09:01:39;54.05;;;7.72;;
62941;SDS011;49042;47.318;19.874;2023-03-14T09:04:41;29.55;;;5.87;;
62941;SDS011;49042;47.318;19.874;2023-03-14T09:07:43;36.17;;;5.07;;
62941;SDS011;49042;47.318;19.874;2023-03-14T09:10:45;80.70;;;8.90;;
62941;SDS011;49042;47.318;19.874;2023-03-14T09:13:46;56.72;;;6.82;;
62941;SDS011;49042;47.318;19.874;2023-03-14T09:16:49;79.32;;;7.65;;
62941;SDS011;49042;47.318;19.874;2023-03-14T09:19:52;39.85;;;7.87;;
62941;SDS011;49042;47.318;19.874;2023-03-14T09:22:53;32.95;;;6.10;;
62941;SDS011;49042;47.318;19.874;2023-03-14T09:25:56;45.65;;;6.53;;
62941;SDS011;49042;47.318;19.874;2023-03-14T09:28:58;43.38;;;6.15;;
62941;SDS011;49042;47.318;19.874;2023-03-14T09:32:00;39.22;;;5.70;;
62941;SDS011;49042;47.318;19.874;2023-03-14T09:35:02;32.85;;;5.50;;
62941;SDS011;49042;47.318;19.874;2023-03-14T09:38:04;13.50;;;4.43;;
62941;SDS011;49042;47.318;19.874;2023-03-14T09:41:50;19.27;;;4.05;;
62941;SDS011;49042;47.318;19.874;2023-03-14T09:44:42;9.88;;;3.72;;
62941;SDS011;49042;47.318;19.874;2023-03-14T09:48:16;14.55;;;4.20;;
62941;SDS011;49042;47.318;19.874;2023-03-14T09:51:21;15.20;;;3.83;;
62941;SDS011;49042;47.318;19.874;2023-03-14T09:54:31;7.65;;;4.20;;
62941;SDS011;49042;47.318;19.874;2023-03-14T09:57:34;21.10;;;4.47;;
62941;SDS011;49042;47.318;19.874;2023-03-14T10:00:37;22.30;;;4.00;;
62941;SDS011;49042;47.318;19.874;2023-03-14T10:03:39;15.48;;;3.55;;
62941;SDS011;49042;47.318;19.874;2023-03-14T10:06:43;9.70;;;3.62;;
62941;SDS011;49042;47.318;19.874;2023-03-14T10:09:46;18.40;;;4.28;;
62941;SDS011;49042;47.318;19.874;2023-03-14T10:12:55;18.37;;;4.93;;
62941;SDS011;49042;47.318;19.874;2023-03-14T10:16:04;19.60;;;4.60;;
62941;SDS011;49042;47.318;19.874;2023-03-14T10:19:10;16.23;;;4.05;;
62941;SDS011;49042;47.318;19.874;2023-03-14T10:22:13;10.65;;;4.10;;
62941;SDS011;49042;47.318;19.874;2023-03-14T10:25:23;11.68;;;3.97;;
62941;SDS011;49042;47.318;19.874;2023-03-14T10:28:30;15.77;;;4.22;;
62941;SDS011;49042;47.318;19.874;2023-03-14T10:31:57;14.73;;;3.60;;
62941;SDS011;49042;47.318;19.874;2023-03-14T10:38:14;34.08;;;4.10;;
62941;SDS011;49042;47.318;19.874;2023-03-14T10:41:26;10.93;;;3.28;;
62941;SDS011;49042;47.318;19.874;2023-03-14T10:44:28;16.17;;;3.85;;
62941;SDS011;49042;47.318;19.874;2023-03-14T10:47:31;7.25;;;3.45;;
62941;SDS011;49042;47.318;19.874;2023-03-14T10:50:34;7.43;;;3.03;;
62941;SDS011;49042;47.318;19.874;2023-03-14T10:53:40;15.40;;;3.72;;
62941;SDS011;49042;47.318;19.874;2023-03-14T10:56:42;14.68;;;4.20;;
62941;SDS011;49042;47.318;19.874;2023-03-14T10:59:44;10.77;;;3.12;;
62941;SDS011;49042;47.318;19.874;2023-03-14T11:06:11;18.83;;;3.70;;
62941;SDS011;49042;47.318;19.874;2023-03-14T11:09:28;20.12;;;3.62;;
62941;SDS011;49042;47.318;19.874;2023-03-14T11:29:17;24.63;;;3.37;;
62941;SDS011;49042;47.318;19.874;2023-03-14T11:35:41;10.32;;;3.12;;
62941;SDS011;49042;47.318;19.874;2023-03-14T11:38:55;20.05;;;3.45;;
62941;SDS011;49042;47.318;19.874;2023-03-14T11:41:59;19.98;;;3.42;;
62941;SDS011;49042;47.318;19.874;2023-03-14T11:45:10;26.02;;;9.70;;
62941;SDS011;49042;47.318;19.874;2023-03-14T11:51:38;27.37;;;10.35;;
62941;SDS011;49042;47.318;19.874;2023-03-14T11:54:43;15.25;;;3.45;;
62941;SDS011;49042;47.318;19.874;2023-03-14T11:57:53;13.25;;;3.72;;
62941;SDS011;49042;47.318;19.874;2023-03-14T12:01:01;11.85;;;3.03;;
62941;SDS011;49042;47.318;19.874;2023-03-14T12:04:19;8.65;;;3.10;;
62941;SDS011;49042;47.318;19.874;2023-03-14T12:07:28;15.65;;;3.60;;
62941;SDS011;49042;47.318;19.874;2023-03-14T12:10:52;13.52;;;3.60;;
62941;SDS011;49042;47.318;19.874;2023-03-14T12:13:56;21.05;;;5.07;;
62941;SDS011;49042;47.318;19.874;2023-03-14T12:17:17;9.15;;;3.70;;
62941;SDS011;49042;47.318;19.874;2023-03-14T12:20:22;26.60;;;3.72;;
62941;SDS011;49042;47.318;19.874;2023-03-14T12:23:25;8.48;;;3.58;;
62941;SDS011;49042;47.318;19.874;2023-03-14T12:26:43;15.60;;;3.22;;
62941;SDS011;49042;47.318;19.874;2023-03-14T12:29:59;38.50;;;4.62;;
62941;SDS011;49042;47.318;19.874;2023-03-14T12:36:20;9.15;;;3.85;;
62941;SDS011;49042;47.318;19.874;2023-03-14T12:43:23;17.92;;;3.20;;
62941;SDS011;49042;47.318;19.874;2023-03-14T12:46:32;10.80;;;3.97;;
62941;SDS011;49042;47.318;19.874;2023-03-14T12:49:35;16.37;;;3.67;;
62941;SDS011;49042;47.318;19.874;2023-03-14T13:02:17;13.23;;;5.90;;
62941;SDS011;49042;47.318;19.874;2023-03-14T13:05:23;14.40;;;3.90;;
62941;SDS011;49042;47.318;19.874;2023-03-14T13:08:34;16.08;;;4.18;;
62941;SDS011;49042;47.318;19.874;2023-03-14T13:11:41;17.05;;;3.87;;
62941;SDS011;49042;47.318;19.874;2023-03-14T13:14:45;27.33;;;3.50;;
62941;SDS011;49042;47.318;19.874;2023-03-14T13:17:49;25.27;;;3.72;;
62941;SDS011;49042;47.318;19.874;2023-03-14T13:21:15;14.57;;;3.58;;
62941;SDS011;49042;47.318;19.874;2023-03-14T13:24:22;22.52;;;5.80;;
62941;SDS011;49042;47.318;19.874;2023-03-14T13:27:24;14.68;;;5.72;;
62941;SDS011;49042;47.318;19.874;2023-03-14T13:30:27;12.90;;;3.53;;
62941;SDS011;49042;47.318;19.874;2023-03-14T13:33:36;22.17;;;5.18;;
62941;SDS011;49042;47.318;19.874;2023-03-14T13:36:42;13.15;;;3.40;;
62941;SDS011;49042;47.318;19.874;2023-03-14T13:39:43;21.40;;;3.95;;
62941;SDS011;49042;47.318;19.874;2023-03-14T13:42:59;12.02;;;3.20;;
62941;SDS011;49042;47.318;19.874;2023-03-14T13:46:06;6.57;;;2.55;;
62941;SDS011;49042;47.318;19.874;2023-03-14T13:49:24;10.25;;;2.65;;
62941;SDS011;49042;47.318;19.874;2023-03-14T13:52:31;6.45;;;3.17;;
62941;SDS011;49042;47.318;19.874;2023-03-14T13:55:37;18.25;;;2.87;;
62941;SDS011;49042;47.318;19.874;2023-03-14T13:58:39;8.88;;;2.50;;
62941;SDS011;49042;47.318;19.874;2023-03-14T14:01:42;7.47;;;2.85;;
62941;SDS011;49042;47.318;19.874;2023-03-14T14:04:44;10.65;;;3.47;;
62941;SDS011;49042;47.318;19.874;2023-03-14T14:07:49;6.35;;;3.50;;
62941;SDS011;49042;47.318;19.874;2023-03-14T14:10:54;9.57;;;3.50;;
62941;SDS011;49042;47.318;19.874;2023-03-14T14:14:00;12.52;;;3.33;;
62941;SDS011;49042;47.318;19.874;2023-03-14T14:17:03;10.77;;;3.20;;
62941;SDS011;49042;47.318;19.874;2023-03-14T14:20:18;19.53;;;3.50;;
62941;SDS011;49042;47.318;19.874;2023-03-14T14:23:33;7.12;;;3.08;;
62941;SDS011;49042;47.318;19.874;2023-03-14T14:26:39;13.57;;;2.78;;
62941;SDS011;49042;47.318;19.874;2023-03-14T14:29:42;11.52;;;3.20;;
62941;SDS011;49042;47.318;19.874;2023-03-14T14:32:46;24.80;;;11.05;;
62941;SDS011;49042;47.318;19.874;2023-03-14T14:35:50;6.78;;;3.30;;
62941;SDS011;49042;47.318;19.874;2023-03-14T14:39:03;20.25;;;3.62;;
62941;SDS011;49042;47.318;19.874;2023-03-14T14:42:15;13.98;;;3.70;;
62941;SDS011;49042;47.318;19.874;2023-03-14T14:45:19;12.70;;;3.85;;
62941;SDS011;49042;47.318;19.874;2023-03-14T14:48:23;12.02;;;4.70;;
62941;SDS011;49042;47.318;19.874;2023-03-14T14:51:31;9.02;;;4.00;;
62941;SDS011;49042;47.318;19.874;2023-03-14T14:57:40;14.32;;;5.70;;
62941;SDS011;49042;47.318;19.874;2023-03-14T15:04:10;18.42;;;4.82;;
62941;SDS011;49042;47.318;19.874;2023-03-14T15:07:15;14.85;;;6.70;;
62941;SDS011;49042;47.318;19.874;2023-03-14T15:10:17;10.60;;;3.40;;
62941;SDS011;49042;47.318;19.874;2023-03-14T15:13:21;21.25;;;3.70;;
62941;SDS011;49042;47.318;19.874;2023-03-14T15:16:25;12.23;;;3.40;;
62941;SDS011;49042;47.318;19.874;2023-03-14T15:19:30;17.83;;;4.43;;
62941;SDS011;49042;47.318;19.874;2023-03-14T15:22:33;14.50;;;3.95;;
62941;SDS011;49042;47.318;19.874;2023-03-14T15:25:35;11.80;;;3.97;;
62941;SDS011;49042;47.318;19.874;2023-03-14T15:28:55;16.23;;;3.33;;
62941;SDS011;49042;47.318;19.874;2023-03-14T15:31:57;15.52;;;3.37;;
62941;SDS011;49042;47.318;19.874;2023-03-14T15:34:59;11.20;;;3.70;;
62941;SDS011;49042;47.318;19.874;2023-03-14T15:38:01;6.37;;;3.00;;
62941;SDS011;49042;47.318;19.874;2023-03-14T15:41:03;8.75;;;3.58;;
62941;SDS011;49042;47.318;19.874;2023-03-14T15:44:04;7.45;;;3.40;;
62941;SDS011;49042;47.318;19.874;2023-03-14T15:47:08;11.73;;;3.50;;
62941;SDS011;49042;47.318;19.874;2023-03-14T15:50:11;4.68;;;2.90;;
62941;SDS011;49042;47.318;19.874;2023-03-14T15:53:13;13.20;;;3.15;;
62941;SDS011;49042;47.318;19.874;2023-03-14T15:56:16;5.15;;;2.83;;
62941;SDS011;49042;47.318;19.874;2023-03-14T15:59:20;13.52;;;3.47;;
62941;SDS011;49042;47.318;19.874;2023-03-14T16:02:21;9.15;;;3.17;;
62941;SDS011;49042;47.318;19.874;2023-03-14T16:05:23;14.27;;;3.28;;
62941;SDS011;49042;47.318;19.874;2023-03-14T16:08:25;15.57;;;3.12;;
62941;SDS011;49042;47.318;19.874;2023-03-14T16:11:29;6.37;;;3.00;;
62941;SDS011;49042;47.318;19.874;2023-03-14T16:14:31;7.00;;;3.17;;
62941;SDS011;49042;47.318;19.874;2023-03-14T16:17:33;6.37;;;3.03;;
62941;SDS011;49042;47.318;19.874;2023-03-14T16:20:35;8.35;;;3.15;;
62941;SDS011;49042;47.318;19.874;2023-03-14T16:23:48;23.67;;;13.98;;
62941;SDS011;49042;47.318;19.874;2023-03-14T16:26:50;13.75;;;3.25;;
62941;SDS011;49042;47.318;19.874;2023-03-14T16:29:51;12.32;;;3.40;;
62941;SDS011;49042;47.318;19.874;2023-03-14T16:32:53;10.77;;;2.90;;
62941;SDS011;49042;47.318;19.874;2023-03-14T16:35:56;13.27;;;3.00;;
62941;SDS011;49042;47.318;19.874;2023-03-14T16:39:01;12.00;;;3.17;;
62941;SDS011;49042;47.318;19.874;2023-03-14T16:42:04;8.45;;;3.33;;
62941;SDS011;49042;47.318;19.874;2023-03-14T16:45:07;10.00;;;3.45;;
62941;SDS011;49042;47.318;19.874;2023-03-14T16:48:10;6.75;;;3.17;;
62941;SDS011;49042;47.318;19.874;2023-03-14T16:51:12;13.80;;;3.28;;
62941;SDS011;49042;47.318;19.874;2023-03-14T16:54:16;10.93;;;3.45;;
62941;SDS011;49042;47.318;19.874;2023-03-14T16:57:18;6.57;;;2.85;;
62941;SDS011;49042;47.318;19.874;2023-03-14T17:00:20;7.65;;;3.50;;
62941;SDS011;49042;47.318;19.874;2023-03-14T17:03:22;5.22;;;3.10;;
62941;SDS011;49042;47.318;19.874;2023-03-14T17:06:25;11.93;;;3.35;;
62941;SDS011;49042;47.318;19.874;2023-03-14T17:09:29;7.22;;;3.05;;
62941;SDS011;49042;47.318;19.874;2023-03-14T17:12:33;7.97;;;3.20;;
62941;SDS011;49042;47.318;19.874;2023-03-14T17:15:35;16.60;;;3.75;;
62941;SDS011;49042;47.318;19.874;2023-03-14T17:18:39;9.55;;;3.92;;
62941;SDS011;49042;47.318;19.874;2023-03-14T17:21:41;10.05;;;5.62;;
62941;SDS011;49042;47.318;19.874;2023-03-14T17:24:42;13.02;;;4.15;;
62941;SDS011;49042;47.318;19.874;2023-03-14T17:27:44;16.30;;;6.35;;
62941;SDS011;49042;47.318;19.874;2023-03-14T17:30:47;6.22;;;4.30;;
62941;SDS011;49042;47.318;19.874;2023-03-14T17:33:49;12.18;;;4.05;;
62941;SDS011;49042;47.318;19.874;2023-03-14T17:36:55;9.70;;;3.50;;
62941;SDS011;49042;47.318;19.874;2023-03-14T17:40:00;13.93;;;6.37;;
62941;SDS011;49042;47.318;19.874;2023-03-14T17:43:04;18.27;;;8.75;;
62941;SDS011;49042;47.318;19.874;2023-03-14T17:46:08;14.63;;;6.65;;
62941;SDS011;49042;47.318;19.874;2023-03-14T17:49:15;12.68;;;4.12;;
62941;SDS011;49042;47.318;19.874;2023-03-14T17:52:18;8.88;;;4.35;;
62941;SDS011;49042;47.318;19.874;2023-03-14T17:55:20;12.00;;;4.93;;
62941;SDS011;49042;47.318;19.874;2023-03-14T17:58:23;10.00;;;4.93;;
62941;SDS011;49042;47.318;19.874;2023-03-14T18:01:28;8.93;;;4.40;;
62941;SDS011;49042;47.318;19.874;2023-03-14T18:04:32;11.38;;;6.28;;
62941;SDS011;49042;47.318;19.874;2023-03-14T18:07:35;6.75;;;3.22;;
62941;SDS011;49042;47.318;19.874;2023-03-14T18:10:38;5.97;;;2.90;;
62941;SDS011;49042;47.318;19.874;2023-03-14T18:13:41;7.20;;;2.95;;
62941;SDS011;49042;47.318;19.874;2023-03-14T18:16:43;5.62;;;2.30;;
62941;SDS011;49042;47.318;19.874;2023-03-14T18:19:49;9.43;;;2.92;;
62941;SDS011;49042;47.318;19.874;2023-03-14T18:22:51;9.80;;;3.22;;
62941;SDS011;49042;47.318;19.874;2023-03-14T18:25:53;5.68;;;2.17;;
62941;SDS011;49042;47.318;19.874;2023-03-14T18:28:56;9.48;;;3.12;;
62941;SDS011;49042;47.318;19.874;2023-03-14T18:31:59;8.55;;;2.62;;
62941;SDS011;49042;47.318;19.874;2023-03-14T18:35:01;4.53;;;2.25;;
62941;SDS011;49042;47.318;19.874;2023-03-14T18:38:05;5.75;;;2.35;;
62941;SDS011;49042;47.318;19.874;2023-03-14T18:41:10;8.05;;;2.95;;
62941;SDS011;49042;47.318;19.874;2023-03-14T18:44:14;3.70;;;2.42;;
62941;SDS011;49042;47.318;19.874;2023-03-14T18:47:17;4.70;;;2.22;;
62941;SDS011;49042;47.318;19.874;2023-03-14T18:50:19;5.10;;;2.28;;
62941;SDS011;49042;47.318;19.874;2023-03-14T18:53:22;4.45;;;2.25;;
62941;SDS011;49042;47.318;19.874;2023-03-14T18:56:32;3.22;;;1.70;;
62941;SDS011;49042;47.318;19.874;2023-03-14T18:59:35;7.68;;;2.30;;